createdAt,value
2023-04-11T00:02:39.790Z,6.28
2023-04-11T00:06:21.862Z,8.27
2023-04-11T00:10:04.398Z,4.38
2023-04-11T00:13:47.719Z,8.50
2023-04-11T00:17:31.563Z,5.95
2023-04-11T00:21:13.629Z,7.30
2023-04-11T00:24:55.731Z,9.73
2023-04-11T00:28:37.649Z,5.40
2023-04-11T00:32:19.611Z,8.02
2023-04-11T00:36:01.618Z,6.38
2023-04-11T00:39:45.317Z,3.92
2023-04-11T00:43:27.255Z,7.32
2023-04-11T00:47:09.601Z,7.10
2023-04-11T00:50:51.542Z,7.70
2023-04-11T00:54:33.817Z,7.80
2023-04-11T00:58:16.896Z,8.13
2023-04-11T01:02:00.002Z,6.65
2023-04-11T01:05:42.719Z,8.40
2023-04-11T01:09:27.320Z,5.68
2023-04-11T01:13:11.030Z,8.05
2023-04-11T01:16:53.247Z,7.80
2023-04-11T01:20:35.260Z,8.48
2023-04-11T01:24:17.493Z,6.03
2023-04-11T01:27:59.546Z,10.80
2023-04-11T01:31:41.554Z,7.95
2023-04-11T01:35:23.645Z,8.20
2023-04-11T01:39:05.778Z,5.43
2023-04-11T01:42:48.646Z,9.15
2023-04-11T01:46:30.917Z,6.97
2023-04-11T01:50:12.886Z,7.13
2023-04-11T01:53:55.488Z,8.27
2023-04-11T01:57:37.501Z,3.55
2023-04-11T02:01:20.125Z,6.35
2023-04-11T02:05:02.115Z,4.90
2023-04-11T02:08:44.644Z,7.70
2023-04-11T02:12:26.811Z,7.28
2023-04-11T02:16:11.880Z,8.95
2023-04-11T02:19:54.803Z,5.88
2023-04-11T02:23:37.295Z,4.95
2023-04-11T02:27:19.256Z,9.23
2023-04-11T02:31:02.196Z,6.40
2023-04-11T02:34:44.189Z,7.68
2023-04-11T02:38:26.299Z,6.78
2023-04-11T02:42:08.241Z,8.45
2023-04-11T02:45:52.392Z,7.13
2023-04-11T02:49:36.420Z,4.90
2023-04-11T02:53:18.858Z,3.70
2023-04-11T02:57:02.217Z,9.27
2023-04-11T03:00:44.713Z,8.52
2023-04-11T03:04:27.441Z,7.63
2023-04-11T03:08:09.429Z,5.45
2023-04-11T03:11:51.511Z,7.82
2023-04-11T03:15:33.522Z,3.30
2023-04-11T03:19:15.499Z,2.88
2023-04-11T03:22:57.432Z,3.72
2023-04-11T03:26:39.437Z,2.13
2023-04-11T03:30:21.467Z,3.90
2023-04-11T03:34:03.402Z,2.65
2023-04-11T03:37:45.360Z,3.33
2023-04-11T03:41:27.323Z,3.30
2023-04-11T03:45:09.779Z,3.53
2023-04-11T03:48:51.710Z,2.15
2023-04-11T03:52:34.175Z,2.67
2023-04-11T03:56:16.134Z,3.65
2023-04-11T03:59:58.532Z,3.15
2023-04-11T04:03:40.818Z,3.67
2023-04-11T04:07:24.000Z,3.78
2023-04-11T04:11:06.225Z,1.75
2023-04-11T04:14:48.605Z,3.75
2023-04-11T04:18:30.538Z,3.53
2023-04-11T04:22:13.365Z,2.67
2023-04-11T04:25:58.106Z,2.97
2023-04-11T04:29:49.799Z,4.63
2023-04-11T04:33:42.928Z,3.70
2023-04-11T04:37:27.345Z,2.30
2023-04-11T04:41:15.745Z,2.13
2023-04-11T04:44:57.827Z,2.20
2023-04-11T04:48:39.786Z,4.03
2023-04-11T04:52:22.673Z,4.28
2023-04-11T04:56:05.109Z,9.32
2023-04-11T04:59:47.190Z,5.40
2023-04-11T05:03:30.570Z,4.63
2023-04-11T05:07:16.115Z,5.00
2023-04-11T05:10:58.085Z,4.82
2023-04-11T05:14:40.051Z,4.53
2023-04-11T05:18:21.979Z,4.43
2023-04-11T05:22:03.937Z,5.70
2023-04-11T05:25:45.892Z,4.18
2023-04-11T05:29:30.071Z,4.72
2023-04-11T05:33:14.630Z,5.35
2023-04-11T05:36:56.584Z,7.53
2023-04-11T05:40:38.520Z,3.08
2023-04-11T05:44:20.651Z,6.47
2023-04-11T05:48:07.004Z,7.05
2023-04-11T05:51:48.978Z,4.03
2023-04-11T05:55:31.122Z,5.43
2023-04-11T05:59:13.067Z,5.47
2023-04-11T06:02:55.127Z,5.88
2023-04-11T06:06:37.175Z,4.15
2023-04-11T06:10:19.132Z,4.15
2023-04-11T06:14:01.049Z,4.38
2023-04-11T06:17:43.024Z,6.50
2023-04-11T06:21:24.940Z,6.00
2023-04-11T06:25:07.805Z,6.68
2023-04-11T06:28:51.345Z,2.90
2023-04-11T06:32:33.318Z,8.57
2023-04-11T06:36:15.379Z,4.72
2023-04-11T06:39:58.897Z,7.43
2023-04-11T06:43:40.986Z,5.38
2023-04-11T06:47:23.109Z,4.88
2023-04-11T06:51:05.202Z,6.18
2023-04-11T06:54:48.542Z,7.50
2023-04-11T06:58:30.618Z,5.85
2023-04-11T07:02:12.598Z,7.82
2023-04-11T07:05:54.574Z,6.70
2023-04-11T07:09:36.633Z,3.53
2023-04-11T07:13:18.578Z,5.60
2023-04-11T07:17:01.478Z,8.65
2023-04-11T07:20:43.590Z,5.38
2023-04-11T07:24:26.153Z,3.80
2023-04-11T07:28:09.792Z,3.42
2023-04-11T07:31:52.990Z,4.95
2023-04-11T07:35:35.155Z,5.45
2023-04-11T07:39:17.262Z,5.68
2023-04-11T07:42:59.281Z,3.15
2023-04-11T07:46:41.378Z,6.68
2023-04-11T07:50:23.371Z,3.35
2023-04-11T07:54:05.353Z,3.97
2023-04-11T07:57:47.277Z,5.68
2023-04-11T08:01:29.242Z,5.28
2023-04-11T08:05:11.297Z,7.15
2023-04-11T08:08:53.300Z,6.53
2023-04-11T08:12:35.529Z,6.07
2023-04-11T08:16:17.701Z,4.45
2023-04-11T08:20:02.071Z,3.50
2023-04-11T08:23:44.437Z,5.25
2023-04-11T08:27:26.385Z,5.32
2023-04-11T08:31:10.369Z,4.25
2023-04-11T08:34:52.365Z,8.43
2023-04-11T08:38:34.285Z,9.18
2023-04-11T08:42:27.233Z,4.50
2023-04-11T08:46:09.217Z,4.63
2023-04-11T08:49:52.238Z,4.07
2023-04-11T08:53:38.053Z,6.57
2023-04-11T08:57:28.074Z,7.23
2023-04-11T09:01:32.525Z,7.68
2023-04-11T09:05:39.000Z,7.60
2023-04-11T09:09:34.720Z,6.95
2023-04-11T09:13:28.143Z,5.32
2023-04-11T09:17:13.627Z,5.25
2023-04-11T09:21:07.005Z,6.13
2023-04-11T09:25:03.328Z,6.53
2023-04-11T09:28:54.007Z,6.45
2023-04-11T09:32:36.561Z,4.80
2023-04-11T09:36:20.753Z,7.43
2023-04-11T09:40:05.606Z,4.47
2023-04-11T09:43:51.718Z,5.75
2023-04-11T09:47:34.158Z,6.65
2023-04-11T09:51:28.055Z,5.93
2023-04-11T09:55:16.881Z,6.95
2023-04-11T09:59:01.058Z,5.38
2023-04-11T10:02:49.457Z,6.13
2023-04-11T10:06:38.968Z,5.63
2023-04-11T10:10:22.694Z,4.45
2023-04-11T10:14:04.707Z,8.70
2023-04-11T10:18:12.521Z,5.40
2023-04-11T10:21:54.616Z,4.38
2023-04-11T10:26:09.823Z,4.72
2023-04-11T10:29:53.143Z,5.40
2023-04-11T10:33:36.207Z,5.43
2023-04-11T10:37:19.462Z,4.82
2023-04-11T10:41:31.370Z,5.07
2023-04-11T10:45:30.099Z,7.80
2023-04-11T10:49:12.281Z,4.40
2023-04-11T10:53:04.624Z,4.82
2023-04-11T10:56:50.729Z,5.07
2023-04-11T11:00:51.013Z,5.18
2023-04-11T11:04:40.719Z,6.25
2023-04-11T11:08:38.099Z,6.30
2023-04-11T11:12:20.106Z,5.80
2023-04-11T11:16:02.128Z,8.35
2023-04-11T11:19:48.588Z,6.05
2023-04-11T11:23:31.175Z,6.03
2023-04-11T11:27:24.202Z,9.10
2023-04-11T11:31:06.388Z,5.03
2023-04-11T11:34:48.546Z,6.68
2023-04-11T11:38:31.537Z,6.30
2023-04-11T11:42:13.857Z,3.15
2023-04-11T11:46:14.554Z,2.88
2023-04-11T11:49:56.808Z,4.15
2023-04-11T11:53:39.010Z,3.85
2023-04-11T11:57:24.259Z,7.78
2023-04-11T12:01:06.247Z,5.50
2023-04-11T12:04:48.461Z,8.43
2023-04-11T12:08:33.757Z,4.30
2023-04-11T12:12:18.997Z,8.23
2023-04-11T12:16:02.267Z,6.28
2023-04-11T12:19:44.319Z,10.50
2023-04-11T12:23:26.247Z,6.38
2023-04-11T12:27:09.518Z,5.78
2023-04-11T12:30:52.596Z,9.10
2023-04-11T12:34:34.565Z,7.07
2023-04-11T12:38:17.952Z,7.68
2023-04-11T12:42:00.372Z,3.60
2023-04-11T12:45:42.325Z,5.28
2023-04-11T12:49:24.328Z,4.53
2023-04-11T12:53:06.270Z,4.50
2023-04-11T12:56:48.237Z,7.95
2023-04-11T13:00:30.614Z,4.53
2023-04-11T13:04:13.012Z,4.28
2023-04-11T13:07:55.140Z,4.13
2023-04-11T13:11:37.426Z,4.00
2023-04-11T13:15:19.368Z,4.45
2023-04-11T13:19:01.297Z,4.13
2023-04-11T13:22:43.611Z,2.45
2023-04-11T13:26:25.586Z,4.70
2023-04-11T13:30:08.981Z,2.63
2023-04-11T13:33:50.902Z,3.78
2023-04-11T13:37:32.922Z,3.40
2023-04-11T13:41:15.058Z,2.90
2023-04-11T13:44:57.034Z,3.30
2023-04-11T13:48:38.990Z,2.42
2023-04-11T13:52:22.972Z,3.30
2023-04-11T13:56:05.500Z,3.08
2023-04-11T13:59:47.481Z,2.05
2023-04-11T14:03:33.605Z,2.42
2023-04-11T14:07:16.246Z,2.45
2023-04-11T14:10:58.221Z,1.35
2023-04-11T14:14:40.170Z,4.63
2023-04-11T14:18:22.171Z,1.80
2023-04-11T14:22:04.823Z,2.35
2023-04-11T14:25:47.165Z,1.52
2023-04-11T14:29:34.533Z,2.15
2023-04-11T14:33:16.633Z,2.38
2023-04-11T14:36:58.688Z,2.88
2023-04-11T14:40:41.505Z,2.53
2023-04-11T14:44:23.497Z,2.33
2023-04-11T14:48:05.893Z,2.05
2023-04-11T14:51:47.946Z,3.13
2023-04-11T14:55:29.937Z,1.60
2023-04-11T14:59:11.913Z,2.75
2023-04-11T15:02:55.798Z,2.45
2023-04-11T15:06:37.906Z,2.53
2023-04-11T15:10:22.723Z,1.75
2023-04-11T15:14:04.825Z,2.40
2023-04-11T15:17:48.911Z,2.80
2023-04-11T15:21:32.296Z,3.50
2023-04-11T15:25:15.711Z,2.83
2023-04-11T15:28:57.621Z,1.65
2023-04-11T15:32:45.849Z,4.05
2023-04-11T15:36:28.756Z,2.75
2023-04-11T15:40:15.507Z,1.80
2023-04-11T15:47:40.183Z,2.17
2023-04-11T15:51:22.506Z,1.48
2023-04-11T15:55:04.876Z,1.65
2023-04-11T15:58:48.678Z,1.95
2023-04-11T16:02:30.858Z,2.25
2023-04-11T16:06:13.126Z,4.13
2023-04-11T16:09:55.803Z,1.80
2023-04-11T16:13:37.886Z,3.22
2023-04-11T16:17:20.568Z,2.58
2023-04-11T16:21:02.561Z,1.63
2023-04-11T16:24:45.114Z,3.10
2023-04-11T16:28:27.086Z,3.03
2023-04-11T16:32:09.167Z,1.58
2023-04-11T16:35:51.193Z,3.00
2023-04-11T16:39:33.298Z,2.20
2023-04-11T16:43:15.493Z,2.03
2023-04-11T16:46:57.431Z,3.47
2023-04-11T16:50:39.400Z,3.88
2023-04-11T16:54:21.495Z,2.58
2023-04-11T16:58:03.700Z,4.13
2023-04-11T17:01:45.826Z,2.22
2023-04-11T17:05:28.004Z,1.15
2023-04-11T17:09:10.683Z,1.63
2023-04-11T17:12:54.179Z,0.95
2023-04-11T17:16:36.222Z,2.80
2023-04-11T17:20:18.241Z,1.88
2023-04-11T17:24:00.625Z,2.17
2023-04-11T17:27:42.776Z,2.95
2023-04-11T17:31:27.733Z,2.67
2023-04-11T17:35:11.062Z,4.10
2023-04-11T17:38:54.845Z,2.05
2023-04-11T17:42:36.789Z,4.43
2023-04-11T17:46:20.439Z,3.08
2023-04-11T17:50:02.580Z,1.70
2023-04-11T17:53:44.617Z,1.70
2023-04-11T17:57:27.547Z,4.30
2023-04-11T18:01:13.212Z,2.53
2023-04-11T18:04:55.191Z,2.92
2023-04-11T18:08:50.394Z,2.33
2023-04-11T18:12:33.612Z,2.97
2023-04-11T18:16:15.613Z,2.28
2023-04-11T18:19:57.677Z,1.63
2023-04-11T18:23:39.800Z,2.88
2023-04-11T18:27:21.967Z,1.45
2023-04-11T18:31:05.176Z,2.00
2023-04-11T18:34:47.347Z,1.85
2023-04-11T18:38:29.388Z,2.03
2023-04-11T18:42:11.646Z,4.03
2023-04-11T18:45:53.575Z,2.45
2023-04-11T18:49:36.323Z,3.22
2023-04-11T18:53:18.303Z,6.45
2023-04-11T18:57:00.457Z,4.45
2023-04-11T19:00:42.544Z,5.38
2023-04-11T19:04:24.760Z,6.68
2023-04-11T19:08:07.204Z,4.32
2023-04-11T19:11:49.133Z,4.82
2023-04-11T19:15:31.117Z,3.28
2023-04-11T19:19:13.266Z,3.40
2023-04-11T19:22:55.828Z,4.72
2023-04-11T19:26:37.926Z,3.97
2023-04-11T19:30:19.944Z,4.45
2023-04-11T19:34:04.449Z,6.45
2023-04-11T19:37:46.664Z,5.32
2023-04-11T19:41:28.664Z,5.93
2023-04-11T19:45:11.535Z,6.65
2023-04-11T19:48:55.071Z,9.05
2023-04-11T19:52:37.138Z,7.80
2023-04-11T19:56:19.117Z,9.13
2023-04-11T20:00:01.122Z,7.85
2023-04-11T20:03:43.478Z,9.75
2023-04-11T20:07:25.613Z,9.95
2023-04-11T20:11:07.565Z,8.38
2023-04-11T20:14:49.505Z,7.20
2023-04-11T20:18:31.554Z,6.07
2023-04-11T20:22:18.427Z,7.32
2023-04-11T20:29:42.513Z,9.70
2023-04-11T20:33:24.895Z,7.85
2023-04-11T20:37:07.856Z,10.45
2023-04-11T20:40:50.143Z,9.95
2023-04-11T20:44:34.245Z,9.18
2023-04-11T20:48:16.255Z,11.52
2023-04-11T20:51:58.360Z,9.40
2023-04-11T20:55:40.336Z,9.88
2023-04-11T20:59:22.295Z,6.57
2023-04-11T21:03:04.430Z,13.75
2023-04-11T21:06:46.514Z,6.45
2023-04-11T21:10:28.573Z,10.68
2023-04-11T21:14:10.746Z,9.00
2023-04-11T21:17:52.814Z,9.45
2023-04-11T21:21:34.865Z,7.93
2023-04-11T21:25:17.080Z,7.20
2023-04-11T21:28:59.022Z,10.77
2023-04-11T21:32:41.550Z,9.13
2023-04-11T21:36:24.596Z,7.57
2023-04-11T21:40:07.216Z,8.50
2023-04-11T21:43:49.160Z,15.40
2023-04-11T21:47:31.133Z,7.20
2023-04-11T21:51:16.447Z,7.13
2023-04-11T21:54:58.457Z,9.32
2023-04-11T21:58:40.402Z,7.65
2023-04-11T22:02:22.577Z,7.32
2023-04-11T22:06:04.986Z,7.25
2023-04-11T22:09:46.978Z,8.52
2023-04-11T22:13:28.941Z,11.80
2023-04-11T22:17:10.999Z,12.15
2023-04-11T22:20:54.597Z,9.35
2023-04-11T22:24:38.433Z,17.13
2023-04-11T22:28:22.185Z,9.00
2023-04-11T22:32:04.356Z,11.10
2023-04-11T22:35:49.178Z,11.00
2023-04-11T22:39:31.717Z,11.48
2023-04-11T22:43:13.729Z,10.27
2023-04-11T22:47:00.957Z,8.65
2023-04-11T22:50:49.493Z,7.97
2023-04-11T22:54:31.401Z,10.93
2023-04-11T22:58:13.924Z,11.90
2023-04-11T23:01:56.051Z,11.63
2023-04-11T23:05:41.206Z,9.20
2023-04-11T23:09:23.303Z,9.13
2023-04-11T23:13:05.346Z,9.68
2023-04-11T23:16:47.323Z,14.38
2023-04-11T23:20:29.307Z,15.32
2023-04-11T23:24:12.518Z,15.88
2023-04-11T23:27:54.438Z,10.50
2023-04-11T23:31:36.368Z,9.55
2023-04-11T23:35:19.468Z,12.13
2023-04-11T23:39:02.230Z,13.27
2023-04-11T23:42:44.485Z,10.60
2023-04-11T23:46:26.642Z,9.45
2023-04-11T23:50:09.512Z,13.65
2023-04-11T23:53:51.434Z,9.25
2023-04-11T23:57:33.477Z,10.82
